Time;durP1;ratioP1;P1;durP2;ratioP2;P2;SDS_P1;SDS_P2;PMS_P1;PMS_P2;Temp;Humidity;BMP_temperature;BMP_pressure;BME280_temperature;BME280_humidity;BME280_pressure;Samples;Min_cycle;Max_cycle;Signal;HPM_P1;HPM_P2
2022/01/21 06:27:07;;;;;;;6.30;2.70;;;3.60;83.10;;;3.72;57.15;100183.25;4901965;28;120922;-85
2022/01/21 06:33:20;;;;;;;4.67;2.53;;;2.60;83.50;;;4.11;58.69;100191.91;4902259;28;124677;-77
2022/01/21 06:39:29;;;;;;;6.33;2.90;;;3.60;85.80;;;4.36;58.61;100204.56;4883446;28;119977;-76
2022/01/21 07:04:09;;;;;;;6.77;2.87;;;2.30;82.10;;;4.18;56.96;100211.78;4902074;28;120139;-87
2022/01/21 07:10:19;;;;;;;8.77;3.17;;;2.30;82.10;;;4.13;57.31;100213.56;4921089;28;124732;-74
2022/01/21 07:16:27;;;;;;;5.57;3.00;;;2.60;82.10;;;4.05;56.78;100231.13;4921590;28;119963;-74
2022/01/21 07:22:39;;;;;;;7.20;2.83;;;2.70;82.10;;;4.00;56.43;100211.84;4920743;28;124744;-75
2022/01/21 07:28:48;;;;;;;7.90;3.50;;;2.10;81.50;;;3.97;57.03;100207.69;4921083;28;120855;-75
2022/01/21 07:34:56;;;;;;;5.57;2.80;;;2.20;81.50;;;3.97;56.81;100229.56;4920792;28;124681;-81
2022/01/21 07:41:05;;;;;;;9.77;3.37;;;3.50;82.60;;;3.91;56.81;100229.69;4920728;28;119876;-78
2022/01/21 07:52:34;;;;;;;8.87;3.33;;;3.40;82.50;;;3.84;56.95;100216.13;5841782;23;98734;-90
2022/01/21 07:58:44;;;;;;;11.33;3.80;;;3.10;82.30;;;3.86;56.87;100232.28;4920380;28;124698;-73
2022/01/21 08:04:55;;;;;;;5.27;3.53;;;3.40;82.60;;;3.80;57.16;100228.56;4939352;28;121125;-84
2022/01/21 08:11:23;;;;;;;7.10;4.03;;;3.40;82.70;;;3.84;56.90;100229.78;4920212;28;124742;-73
2022/01/21 08:17:32;;;;;;;11.17;3.37;;;3.40;82.50;;;3.79;56.75;100243.31;4842683;29;120037;-73
2022/01/21 08:23:39;;;;;;;9.80;3.87;;;3.40;82.50;;;3.82;56.70;100229.19;4843467;29;124664;-72
2022/01/21 08:29:48;;;;;;;6.53;3.10;;;3.50;82.70;;;3.86;56.54;100227.63;4843506;29;120879;-73
2022/01/21 08:35:55;;;;;;;5.70;3.33;;;3.40;82.50;;;3.90;56.63;100228.03;4843012;29;124715;-73
2022/01/21 08:42:06;;;;;;;7.70;3.33;;;3.50;82.40;;;3.95;56.44;100242.66;4833171;29;119697;-74
2022/01/21 09:09:43;;;;;;;6.23;3.87;;;2.50;81.10;;;4.17;55.81;100266.72;4919282;28;125034;-75
2022/01/21 09:15:57;;;;;;;5.63;3.53;;;3.70;81.90;;;4.19;55.58;100262.69;4919384;28;121980;-73
2022/01/21 09:22:06;;;;;;;11.33;4.40;;;3.80;81.90;;;4.16;56.11;100259.56;4919056;28;125178;-77
2022/01/21 09:28:15;;;;;;;7.77;3.90;;;3.70;81.70;;;4.15;55.71;100252.44;4919672;28;121258;-76
2022/01/21 09:34:26;;;;;;;15.00;5.30;;;3.70;81.80;;;4.15;56.19;100257.91;4922670;28;124988;-74
2022/01/21 09:40:44;;;;;;;8.30;4.50;;;3.70;81.70;;;4.14;55.88;100256.25;4922639;28;120344;-72
2022/01/21 09:59:03;;;;;;;9.07;3.90;;;3.80;81.60;;;4.35;55.67;100269.38;4920320;28;95900;-90
2022/01/21 10:01:54;;;;;;;5.40;3.23;;;3.80;81.60;;;4.41;55.11;100276.66;4915637;28;119184;-90
2022/01/21 10:05:18;;;;;;;11.73;4.07;;;3.90;81.70;;;4.49;55.12;100286.41;4884174;28;118777;-91
2022/01/21 10:07:50;;;;;;;6.63;3.77;;;3.90;81.60;;;4.49;55.38;100278.22;4879005;28;123209;-89
2022/01/21 10:10:39;;;;;;;9.03;3.87;;;4.00;81.40;;;4.56;55.24;100286.28;4892437;28;122355;-90
2022/01/21 10:13:08;;;;;;;5.93;3.77;;;4.00;81.20;;;4.54;55.10;100289.28;4901957;28;120500;-91
2022/01/21 10:15:40;;;;;;;10.23;4.30;;;4.00;81.00;;;4.52;54.52;100301.53;4863688;28;117900;-89
2022/01/21 10:18:19;;;;;;;19.03;4.47;;;4.10;80.90;;;4.56;55.29;100297.25;4875071;28;122301;-90
2022/01/21 10:21:00;;;;;;;10.60;4.50;;;4.10;81.10;;;4.64;54.61;100302.38;4872412;28;122275;-91
2022/01/21 10:23:35;;;;;;;8.20;3.60;;;4.10;81.30;;;4.71;55.40;100308.56;4877491;28;119273;-90
2022/01/21 10:26:16;;;;;;;13.10;3.80;;;4.20;81.60;;;4.78;54.80;100294.75;4864816;28;118861;-90
2022/01/21 10:28:59;;;;;;;5.27;3.57;;;4.70;81.80;;;4.81;54.83;100303.34;4901292;28;123620;-92
2022/01/21 10:32:04;;;;;;;5.77;3.57;;;4.30;81.30;;;4.86;54.61;100314.44;4849640;29;123482;-89
2022/01/21 10:34:43;;;;;;;6.80;3.60;;;4.30;81.10;;;4.84;54.10;100315.75;4848743;29;119455;-93
2022/01/21 10:37:35;;;;;;;6.83;3.90;;;4.30;80.60;;;4.87;54.29;100315.25;4838464;29;117853;-91
2022/01/21 10:40:07;;;;;;;9.60;3.40;;;4.40;80.70;;;4.86;54.21;100314.44;4858655;28;123799;-91
2022/01/21 10:43:15;;;;;;;8.20;4.03;;;4.40;80.40;;;4.89;54.35;100296.69;4826936;29;123330;-90
2022/01/21 10:46:19;;;;;;;12.67;5.40;;;4.40;80.50;;;4.84;53.76;100291.09;4827522;29;118229;-90
2022/01/21 10:49:10;;;;;;;7.27;3.50;;;4.40;80.10;;;4.79;54.40;100280.84;4849254;28;119780;-92
2022/01/21 10:55:38;;;;;;;9.37;3.73;;;4.30;80.30;;;4.78;54.18;100281.06;4847146;28;124746;-93
2022/01/21 10:58:15;;;;;;;9.00;3.43;;;4.30;80.00;;;4.78;53.90;100287.41;4848607;29;118456;-91
2022/01/21 11:01:11;;;;;;;8.30;3.53;;;4.40;80.20;;;4.83;54.22;100278.44;4876283;28;118397;-91
2022/01/21 11:04:12;;;;;;;9.07;4.00;;;4.40;80.00;;;4.86;54.17;100283.44;4864229;28;122876;-91
2022/01/21 11:10:36;;;;;;;11.33;3.37;;;4.40;80.00;;;4.99;53.41;100275.00;4893167;28;120044;-91
2022/01/21 11:13:20;;;;;;;8.17;3.63;;;4.60;80.10;;;5.05;53.44;100270.47;4890954;28;119702;-92
2022/01/21 11:19:36;;;;;;;5.90;3.20;;;4.60;79.80;;;5.12;53.78;100256.66;4889501;28;124576;-91
2022/01/21 11:25:45;;;;;;;6.77;3.70;;;4.60;79.30;;;5.08;53.23;100262.63;4905055;28;120971;-87
2022/01/21 11:31:55;;;;;;;5.97;2.60;;;4.60;78.50;;;4.96;52.81;100261.78;4899568;28;124764;-86
2022/01/21 11:34:43;;;;;;;11.90;3.03;;;4.60;78.60;;;5.00;53.23;100253.94;4899644;28;118942;-91
2022/01/21 11:37:11;;;;;;;6.80;3.10;;;4.60;78.50;;;5.00;53.26;100253.94;4887162;28;119123;-80
2022/01/21 11:39:40;;;;;;;8.33;2.67;;;4.60;78.60;;;5.03;53.14;100248.81;4898497;28;124724;-87
2022/01/21 11:46:16;;;;;;;9.30;3.20;;;4.60;78.70;;;5.13;53.31;100258.31;4903533;28;119745;-87
2022/01/21 11:49:23;;;;;;;9.60;3.50;;;4.70;78.70;;;5.19;52.60;100249.97;4889879;28;118263;-91
2022/01/21 11:52:46;;;;;;;8.40;3.30;;;4.70;78.50;;;5.18;51.51;100240.06;4889301;28;124007;-91
2022/01/21 11:55:38;;;;;;;8.33;2.93;;;4.70;77.50;;;5.12;52.08;100249.25;4872972;28;123638;-91
2022/01/21 12:01:47;;;;;;;4.50;3.00;;;4.60;77.40;;;5.08;51.91;100250.84;4868460;29;121170;-90
2022/01/21 12:05:03;;;;;;;10.77;3.67;;;4.70;77.60;;;5.14;52.00;100252.59;4867333;28;123935;-92
2022/01/21 12:11:34;;;;;;;6.13;1.97;;;4.70;77.60;;;5.21;51.88;100236.00;4864924;28;120324;-91
2022/01/21 12:17:48;;;;;;;8.73;3.10;;;4.70;77.10;;;5.12;51.78;100216.38;4877585;28;125113;-83
2022/01/21 12:20:14;;;;;;;20.93;4.13;;;4.70;77.00;;;5.11;51.91;100220.22;4849831;29;123272;-88
2022/01/21 12:23:17;;;;;;;9.43;3.80;;;4.70;77.10;;;5.12;52.44;100201.84;4873363;28;119050;-87
2022/01/21 12:26:20;;;;;;;5.07;2.60;;;4.70;77.20;;;5.12;52.19;100213.66;4858434;29;119607;-86
2022/01/21 12:29:15;;;;;;;9.53;2.30;;;4.70;77.20;;;5.09;51.75;100209.47;4856284;29;122262;-83
2022/01/21 12:32:13;;;;;;;8.23;2.60;;;4.70;77.30;;;5.15;51.99;100213.16;4848194;29;123332;-86
2022/01/21 12:39:17;;;;;;;5.83;2.67;;;4.70;77.40;;;5.27;52.72;100215.88;4870819;28;119572;-89
2022/01/21 12:42:24;;;;;;;9.40;2.40;;;4.80;77.60;;;5.29;52.50;100225.53;4868650;29;122929;-91
2022/01/21 12:45:10;;;;;;;14.13;2.60;;;4.80;77.50;;;5.31;52.22;100225.28;4850488;28;121975;-90
2022/01/21 12:48:34;;;;;;;7.53;2.10;;;4.80;77.50;;;5.37;52.11;100223.47;4857750;29;119175;-90
2022/01/21 12:56:59;;;;;;;6.40;3.57;;;5.00;77.80;;;5.50;51.82;100228.66;4854671;28;124304;-91
2022/01/21 12:59:29;;;;;;;6.87;2.40;;;5.70;78.30;;;5.51;51.35;100230.34;4874243;28;119482;-91
2022/01/21 13:02:04;;;;;;;10.13;2.20;;;5.00;77.60;;;5.51;52.31;100227.59;4886204;28;118274;-91
2022/01/21 13:05:00;;;;;;;6.57;2.70;;;5.00;77.60;;;5.53;51.94;100219.94;4861115;28;123095;-90
2022/01/21 13:07:50;;;;;;;3.50;1.97;;;5.00;77.70;;;5.55;51.91;100223.28;4878767;28;122922;-91
2022/01/21 13:10:36;;;;;;;7.70;3.27;;;5.00;77.80;;;5.56;52.32;100230.41;4880098;28;119692;-91
2022/01/21 13:13:45;;;;;;;5.40;2.30;;;5.10;77.70;;;5.57;52.51;100232.09;4882630;28;118666;-91
2022/01/21 13:16:30;;;;;;;10.17;2.83;;;4.00;76.80;;;5.60;52.27;100231.63;4878061;28;123018;-90
2022/01/21 13:19:06;;;;;;;5.60;2.03;;;5.10;77.80;;;5.60;52.58;100226.13;4878033;28;123240;-90
2022/01/21 13:22:30;;;;;;;11.63;2.70;;;5.10;77.80;;;5.62;51.57;100228.63;4859588;28;117967;-90
2022/01/21 13:25:23;;;;;;;12.53;2.97;;;5.10;77.70;;;5.54;51.83;100227.13;4879403;28;119480;-90
2022/01/21 13:28:27;;;;;;;6.43;2.20;;;5.10;77.60;;;5.49;52.13;100235.22;4879125;28;123621;-90
2022/01/21 13:35:17;;;;;;;4.50;2.10;;;5.00;77.50;;;5.44;52.04;100232.38;4889934;28;119363;-91
2022/01/21 13:41:26;;;;;;;4.47;2.67;;;5.00;77.60;;;5.38;52.48;100233.38;4880935;28;125060;-93
2022/01/21 13:44:04;;;;;;;5.47;2.70;;;5.00;77.70;;;5.42;52.36;100232.63;4883522;28;122948;-91
2022/01/21 13:46:33;;;;;;;4.17;2.50;;;5.10;78.00;;;5.45;52.92;100243.09;4886631;28;117545;-91
2022/01/21 13:49:04;;;;;;;4.80;2.47;;;5.00;77.90;;;5.52;52.88;100240.22;4828410;28;118347;-91
2022/01/21 13:52:10;;;;;;;4.40;1.97;;;5.10;78.10;;;5.61;52.15;100241.50;4884620;28;122749;-91
2022/01/21 13:54:59;;;;;;;4.23;2.03;;;5.10;78.20;;;5.64;52.66;100237.44;4891869;28;123814;-91
2022/01/21 13:57:27;;;;;;;4.27;2.70;;;5.10;78.10;;;5.65;52.93;100242.69;4881454;28;119314;-89
2022/01/21 14:00:34;;;;;;;7.80;2.70;;;5.20;78.20;;;5.68;52.50;100239.44;4884925;28;118631;-90
2022/01/21 14:03:08;;;;;;;7.10;2.50;;;5.20;78.10;;;5.63;52.35;100236.59;4889243;28;123550;-92
2022/01/21 14:06:16;;;;;;;5.83;2.03;;;5.20;78.00;;;5.61;52.54;100236.00;4882751;28;123683;-92
2022/01/21 14:12:25;;;;;;;6.07;2.30;;;5.10;77.80;;;5.52;52.45;100229.25;4882709;28;119567;-91
2022/01/21 14:14:54;;;;;;;4.20;1.87;;;5.30;78.10;;;5.56;53.02;100232.34;4874719;28;122824;-92
2022/01/21 14:18:00;;;;;;;5.77;1.90;;;5.10;78.00;;;5.61;52.68;100216.81;4879658;28;123236;-90
2022/01/21 14:20:31;;;;;;;8.67;2.37;;;5.20;78.00;;;5.62;52.15;100213.00;4878314;28;119013;-90
2022/01/21 14:23:55;;;;;;;4.10;2.50;;;5.20;78.10;;;5.71;52.33;100214.28;4881395;28;120815;-91
2022/01/21 14:26:40;;;;;;;3.13;1.83;;;5.20;78.10;;;5.72;52.58;100218.69;4887512;28;123419;-90
2022/01/21 14:29:08;;;;;;;5.63;2.77;;;5.30;78.10;;;5.71;51.86;100217.00;4879420;28;123007;-90
2022/01/21 14:31:43;;;;;;;7.20;2.03;;;5.30;77.90;;;5.71;52.38;100222.50;4885704;28;119635;-91
2022/01/21 14:34:49;;;;;;;6.90;2.10;;;5.20;77.70;;;5.71;51.71;100230.72;4871161;28;118301;-90
2022/01/21 14:37:22;;;;;;;4.50;2.03;;;5.30;77.80;;;5.72;52.78;100226.91;4878923;28;123650;-92
2022/01/21 14:40:50;;;;;;;8.07;2.40;;;5.50;78.10;;;5.75;52.20;100228.34;4866201;28;123079;-91
2022/01/21 14:43:21;;;;;;;4.87;2.20;;;5.30;77.70;;;5.71;52.44;100227.97;4890475;28;120209;-90
2022/01/21 14:46:06;;;;;;;9.60;2.37;;;5.30;77.70;;;5.70;52.20;100237.28;4864956;28;118953;-89
2022/01/21 14:55:07;;;;;;;6.93;2.53;;;5.20;77.50;;;5.64;52.12;100235.53;4880836;28;119198;-87
2022/01/21 14:58:12;;;;;;;5.17;3.10;;;5.20;78.10;;;5.61;52.17;100232.44;4890451;28;118602;-91
2022/01/21 15:04:21;;;;;;;5.40;3.37;;;5.20;77.70;;;5.61;52.26;100237.91;4885447;28;124855;-90
2022/01/21 15:06:48;;;;;;;9.20;2.70;;;5.20;77.70;;;5.65;52.63;100234.44;4895380;28;117906;-91
2022/01/21 15:09:56;;;;;;;5.13;2.13;;;5.90;78.50;;;5.75;52.58;100239.31;4886206;28;119033;-90
2022/01/21 15:19:12;;;;;;;6.77;2.30;;;5.30;77.80;;;5.68;52.22;100238.63;4897150;28;120786;-91
2022/01/21 15:21:50;;;;;;;3.80;2.33;;;5.30;77.80;;;5.70;52.12;100234.56;4890099;28;119717;-91
2022/01/21 15:24:20;;;;;;;4.20;1.70;;;5.30;77.80;;;5.68;52.52;100231.22;4893773;28;122611;-91
2022/01/21 15:26:47;;;;;;;5.70;2.40;;;5.30;78.40;;;5.70;52.11;100236.47;4892536;28;122429;-91
2022/01/21 15:33:34;;;;;;;4.17;2.00;;;5.30;77.80;;;5.62;52.07;100229.47;4891206;28;119859;-91
2022/01/21 15:36:19;;;;;;;7.93;3.00;;;5.30;77.80;;;5.63;52.54;100236.59;4878825;28;122076;-91
2022/01/21 15:39:43;;;;;;;4.20;2.40;;;5.20;77.70;;;5.63;52.62;100225.63;4871352;28;124346;-91
2022/01/21 15:42:12;;;;;;;11.03;2.60;;;5.20;77.70;;;5.59;52.69;100224.47;4873769;28;117494;-91
2022/01/21 15:48:23;;;;;;;5.63;2.00;;;5.20;77.50;;;5.45;52.74;100228.56;4889188;28;124870;-90
2022/01/21 15:50:51;;;;;;;4.03;2.00;;;5.10;77.50;;;5.42;52.80;100227.13;4896187;28;124387;-90
2022/01/21 15:53:36;;;;;;;4.40;2.00;;;5.10;77.50;;;5.44;52.24;100229.66;4891643;28;120062;-88
2022/01/21 15:56:40;;;;;;;7.70;1.93;;;5.10;77.70;;;5.42;52.76;100224.41;4877260;28;118731;-90
2022/01/21 16:03:13;;;;;;;5.07;2.40;;;5.00;77.70;;;5.40;52.19;100231.19;4888700;28;124105;-79
2022/01/21 16:06:18;;;;;;;5.40;2.40;;;5.00;77.60;;;5.39;52.52;100232.28;4884483;28;119027;-87
2022/01/21 16:08:45;;;;;;;5.07;2.03;;;5.00;77.60;;;5.36;52.21;100230.84;4880072;28;118741;-74
2022/01/21 16:11:13;;;;;;;5.30;2.30;;;5.00;77.70;;;5.37;52.42;100234.44;4897484;28;123350;-83
2022/01/21 16:17:25;;;;;;;11.93;2.60;;;5.00;77.80;;;5.40;52.56;100236.69;4899753;28;121289;-85
2022/01/21 16:20:29;;;;;;;3.73;1.73;;;5.00;77.80;;;5.44;52.83;100232.38;4890282;28;119369;-92
2022/01/21 16:23:55;;;;;;;6.33;2.30;;;5.00;77.80;;;5.44;52.28;100237.88;4891672;28;122395;-92
2022/01/21 16:30:08;;;;;;;3.50;2.10;;;5.00;77.80;;;5.38;53.00;100247.06;4900750;28;120324;-81
2022/01/21 16:36:18;;;;;;;8.10;2.40;;;5.00;77.90;;;5.40;52.96;100248.50;4898453;28;124908;-90
2022/01/21 16:46:16;;;;;;;8.00;2.70;;;5.00;78.00;;;5.39;53.23;100244.06;4890199;28;119946;-90
2022/01/21 16:48:45;;;;;;;3.80;1.90;;;5.70;78.70;;;5.38;53.19;100244.34;4871056;28;123186;-90
2022/01/21 16:54:53;;;;;;;6.73;2.27;;;5.00;78.20;;;5.41;52.89;100249.31;4884559;28;120278;-90
2022/01/21 17:02:04;;;;;;;5.50;2.10;;;5.00;78.20;;;5.44;52.81;100238.69;4898051;28;124500;-74
2022/01/21 17:04:51;;;;;;;9.80;2.60;;;5.00;78.20;;;5.44;53.54;100240.59;4882467;28;124582;-90
2022/01/21 17:07:22;;;;;;;7.60;2.90;;;5.00;78.30;;;5.41;52.64;100233.69;4895017;28;119835;-90
2022/01/21 17:10:07;;;;;;;8.07;3.80;;;5.00;78.20;;;5.44;53.00;100240.59;4851788;28;117252;-89
2022/01/21 17:16:16;;;;;;;7.30;2.33;;;5.00;78.20;;;5.36;52.79;100236.34;4886495;28;124790;-87
2022/01/21 17:19:21;;;;;;;7.50;2.00;;;5.00;78.30;;;5.40;52.89;100229.31;4858965;28;118178;-89
2022/01/21 17:22:33;;;;;;;4.50;2.20;;;5.00;78.40;;;5.41;53.60;100232.88;4863620;28;118447;-87
2022/01/21 17:25:00;;;;;;;5.20;2.20;;;5.00;78.40;;;5.42;52.98;100234.53;4870880;28;122488;-90
2022/01/21 17:27:30;;;;;;;3.40;2.13;;;5.00;78.50;;;5.45;53.17;100232.13;4884274;28;122650;-89
2022/01/21 17:30:19;;;;;;;6.50;2.57;;;5.20;78.70;;;5.53;53.07;100241.88;4853000;29;119309;-90
2022/01/21 17:32:51;;;;;;;6.07;1.80;;;5.10;78.70;;;5.51;53.18;100238.56;4870514;28;120219;-90
2022/01/21 17:35:36;;;;;;;3.23;2.13;;;5.00;78.50;;;5.52;53.30;100246.53;4868557;28;121933;-91
2022/01/21 17:38:10;;;;;;;4.20;2.00;;;5.10;78.60;;;5.50;53.20;100243.19;4865975;28;124067;-92
2022/01/21 17:40:45;;;;;;;13.43;1.97;;;5.10;78.60;;;5.54;52.86;100257.28;4883114;28;118838;-89
2022/01/21 17:43:12;;;;;;;5.57;2.20;;;5.10;78.50;;;5.50;52.69;100239.63;4885846;28;118831;-90
2022/01/21 17:45:39;;;;;;;4.30;2.30;;;5.20;78.50;;;5.50;53.10;100232.22;4874854;28;122628;-87
2022/01/21 17:48:51;;;;;;;4.17;2.03;;;5.20;78.50;;;5.52;52.56;100238.31;4873494;28;123414;-89
2022/01/21 17:51:37;;;;;;;6.30;2.50;;;5.10;78.40;;;5.49;53.60;100238.81;4880682;28;117793;-90
2022/01/21 17:54:23;;;;;;;5.47;2.50;;;5.10;78.50;;;5.47;53.05;100227.25;4881414;28;118435;-90
2022/01/21 17:56:51;;;;;;;2.43;1.87;;;5.10;78.40;;;5.44;53.39;100227.72;4890340;28;124857;-89
2022/01/21 17:59:19;;;;;;;3.00;2.30;;;5.00;78.40;;;5.46;53.06;100224.75;4852749;29;121903;-90
2022/01/21 18:01:46;;;;;;;7.43;2.17;;;5.00;78.50;;;5.48;53.73;100226.19;4873256;28;118805;-89
2022/01/21 18:04:52;;;;;;;3.07;2.63;;;5.10;78.70;;;5.52;53.09;100229.25;4880641;28;118706;-89
2022/01/21 18:11:05;;;;;;;3.33;1.80;;;5.10;78.70;;;5.46;53.29;100246.69;4886983;28;124094;-90
2022/01/21 18:13:52;;;;;;;4.43;2.33;;;5.10;78.70;;;5.50;53.49;100247.84;4888726;28;120033;-90
2022/01/21 18:16:19;;;;;;;6.40;2.17;;;5.10;78.70;;;5.48;53.08;100252.75;4892263;28;118722;-90
2022/01/21 18:19:46;;;;;;;6.73;2.60;;;5.20;78.70;;;5.52;52.86;100245.72;4880716;28;123411;-89
2022/01/21 18:22:36;;;;;;;4.20;2.23;;;5.10;78.70;;;5.49;52.92;100248.94;4890015;28;124514;-90
2022/01/21 18:25:04;;;;;;;6.17;2.30;;;5.10;78.60;;;5.43;53.19;100244.44;4890520;28;118481;-88
2022/01/21 18:27:50;;;;;;;5.30;2.43;;;5.00;78.50;;;5.42;53.24;100234.53;4891804;28;118204;-88
2022/01/21 18:30:54;;;;;;;4.33;2.10;;;5.00;78.50;;;5.40;53.31;100231.19;4890150;28;123249;-89
2022/01/21 18:34:18;;;;;;;7.43;2.40;;;5.00;78.60;;;5.39;53.72;100229.53;4864739;28;122644;-90
2022/01/21 18:36:47;;;;;;;4.47;2.10;;;5.00;78.60;;;5.36;53.80;100241.00;4891205;28;119466;-89
2022/01/21 18:39:17;;;;;;;5.73;2.20;;;5.10;78.70;;;5.39;53.81;100237.75;4873421;28;118385;-90
2022/01/21 18:41:45;;;;;;;7.30;2.07;;;5.10;78.80;;;5.40;53.10;100228.44;4892383;28;122768;-90
2022/01/21 18:47:54;;;;;;;2.40;1.70;;;4.90;78.60;;;5.37;53.30;100248.13;4895704;28;119624;-89
2022/01/21 18:50:21;;;;;;;5.40;2.40;;;4.90;78.60;;;5.37;53.17;100251.69;4866180;29;118692;-90
2022/01/21 18:53:08;;;;;;;6.50;2.43;;;4.90;78.70;;;5.40;53.46;100251.25;4876972;28;123935;-88
2022/01/21 18:55:58;;;;;;;3.83;2.40;;;5.00;78.80;;;5.37;53.66;100245.38;4874184;28;123647;-89
2022/01/21 18:59:21;;;;;;;5.97;2.60;;;5.00;78.80;;;5.34;53.77;100248.63;4880800;28;119234;-89
2022/01/21 19:02:08;;;;;;;5.43;2.70;;;4.90;78.80;;;5.28;53.40;100256.72;4882711;28;118306;-89
2022/01/21 19:04:54;;;;;;;5.90;2.63;;;4.90;78.90;;;5.27;53.58;100254.25;4882056;28;124286;-88
2022/01/21 19:07:22;;;;;;;7.53;2.80;;;4.90;79.00;;;5.24;54.00;100261.03;4861753;28;122442;-89
2022/01/21 19:09:51;;;;;;;5.03;2.30;;;4.90;79.20;;;5.25;53.97;100250.91;4856852;28;119320;-90
2022/01/21 19:12:36;;;;;;;6.03;3.23;;;4.80;79.20;;;5.32;53.50;100259.84;4862279;29;119296;-89
2022/01/21 19:16:01;;;;;;;6.13;2.80;;;4.90;79.50;;;5.35;54.29;100258.50;4885944;28;123469;-89
2022/01/21 19:18:30;;;;;;;5.30;2.67;;;4.90;79.60;;;5.32;54.28;100260.66;4880205;28;123777;-89
2022/01/21 19:20:57;;;;;;;4.27;2.60;;;4.90;79.60;;;5.34;54.23;100263.16;4876026;28;117417;-90
2022/01/21 19:23:45;;;;;;;9.10;2.90;;;4.90;79.80;;;5.34;54.17;100263.16;4868953;28;118629;-89
2022/01/21 19:26:30;;;;;;;4.63;2.50;;;4.90;80.00;;;5.31;54.32;100272.69;4864734;28;123406;-89
2022/01/21 19:32:41;;;;;;;3.60;2.87;;;4.90;80.10;;;5.35;54.46;100281.28;4882323;28;119835;-90
2022/01/21 19:35:10;;;;;;;6.57;2.97;;;5.00;80.30;;;5.37;54.72;100281.00;4890348;28;118764;-90
2022/01/21 19:37:39;;;;;;;7.00;3.03;;;4.90;80.30;;;5.38;54.41;100283.53;4869023;28;124545;-91
2022/01/21 19:40:28;;;;;;;4.50;2.50;;;5.10;80.40;;;5.39;54.47;100285.19;4856147;29;122436;-89
2022/01/21 19:42:58;;;;;;;8.40;2.77;;;4.90;80.30;;;5.34;55.07;100278.75;4885100;28;118919;-89
2022/01/21 19:45:48;;;;;;;7.70;2.43;;;4.90;80.40;;;5.35;54.60;100280.41;4846398;29;117515;-88
2022/01/21 19:48:23;;;;;;;3.20;2.20;;;4.90;80.40;;;5.36;54.65;100282.09;4870899;28;123548;-88
2022/01/21 19:51:09;;;;;;;3.27;2.50;;;4.90;80.50;;;5.38;54.99;100267.09;4877738;28;123020;-89
2022/01/21 19:54:16;;;;;;;6.80;3.10;;;4.90;80.70;;;5.36;54.55;100279.38;4862495;29;118362;-90
2022/01/21 19:57:22;;;;;;;5.20;2.80;;;4.90;80.80;;;5.30;54.46;100275.69;4884749;28;118299;-91
2022/01/21 19:59:58;;;;;;;8.57;2.60;;;4.90;80.90;;;5.24;55.44;100279.41;4866639;28;122368;-90
2022/01/21 20:10:30;;;;;;;6.83;2.83;;;4.80;81.50;;;5.15;55.58;100278.91;4873383;28;123366;-88
2022/01/21 20:16:41;;;;;;;8.17;3.03;;;4.80;81.70;;;5.14;55.80;100284.66;4889271;28;119857;-91
2022/01/21 20:19:27;;;;;;;5.13;3.03;;;4.70;81.80;;;5.19;56.27;100287.50;4864125;28;119073;-90
2022/01/21 20:22:12;;;;;;;7.67;2.90;;;4.80;82.00;;;5.19;55.76;100284.75;4869433;28;123305;-89
2022/01/21 20:24:42;;;;;;;6.93;3.13;;;4.80;82.10;;;5.16;56.41;100279.72;4887775;28;122849;-89
2022/01/21 20:27:11;;;;;;;6.87;2.80;;;4.80;82.10;;;5.17;56.48;100287.72;4872074;28;119040;-89
2022/01/21 20:29:40;;;;;;;5.90;2.80;;;4.70;82.00;;;5.21;56.06;100291.66;4879356;28;118234;-89
2022/01/21 20:32:20;;;;;;;7.63;2.57;;;4.90;82.20;;;5.23;56.13;100294.16;4864944;28;123102;-90
2022/01/21 20:35:27;;;;;;;4.87;2.90;;;4.80;82.20;;;5.29;55.94;100287.69;4877719;28;121861;-90
2022/01/21 20:37:55;;;;;;;5.03;2.97;;;4.80;82.20;;;5.30;56.07;100292.13;4877632;28;118641;-89
2022/01/21 20:41:06;;;;;;;3.50;2.47;;;4.80;82.20;;;5.39;56.43;100292.56;4873204;28;118321;-88
2022/01/21 20:43:31;;;;;;;8.10;3.10;;;4.90;82.40;;;5.40;56.38;100286.00;4864138;28;123435;-88
2022/01/21 20:45:58;;;;;;;6.63;3.10;;;4.90;82.30;;;5.44;55.79;100281.72;4852241;28;122793;-88
2022/01/21 20:48:31;;;;;;;4.97;2.53;;;4.90;82.30;;;5.44;55.84;100284.47;4882744;28;119268;-89
2022/01/21 20:51:18;;;;;;;13.63;2.93;;;4.90;82.40;;;5.50;55.63;100283.47;4854371;28;117187;-89
2022/01/21 20:54:23;;;;;;;8.23;3.00;;;5.00;82.50;;;5.51;56.67;100282.44;4861335;28;122696;-90
2022/01/21 20:56:54;;;;;;;8.17;3.03;;;5.00;82.60;;;5.47;56.29;100282.06;4861527;28;123692;-89
2022/01/21 20:59:39;;;;;;;6.63;3.10;;;5.00;82.60;;;5.48;56.46;100277.41;4886042;28;119849;-89
2022/01/21 21:02:25;;;;;;;5.80;3.77;;;5.00;82.70;;;5.45;56.22;100275.16;4889249;28;118812;-87
2022/01/21 21:04:52;;;;;;;4.73;3.00;;;5.00;82.80;;;5.40;56.53;100270.41;4862813;28;123118;-90
2022/01/21 21:07:19;;;;;;;6.90;3.17;;;5.00;83.00;;;5.39;56.86;100273.38;4850815;28;122099;-87
2022/01/21 21:09:46;;;;;;;7.40;3.63;;;5.00;83.10;;;5.37;56.59;100261.81;4870282;28;117274;-88
2022/01/21 21:12:14;;;;;;;9.00;3.80;;;5.00;83.20;;;5.38;56.77;100269.00;4855858;28;118954;-88
2022/01/21 21:15:21;;;;;;;7.00;4.27;;;4.90;83.40;;;5.39;57.42;100256.94;4834882;28;122281;-88
2022/01/21 21:21:18;;;;;;;7.57;3.30;;;4.90;83.70;;;5.34;57.39;100265.06;4875007;28;118519;-89
2022/01/21 21:26:41;;;;;;;7.63;2.90;;;4.90;84.00;;;5.30;57.87;100275.69;4862108;29;124130;-88
2022/01/21 21:29:21;;;;;;;8.90;4.00;;;4.90;84.00;;;5.30;57.83;100272.94;4878258;28;123825;-88
2022/01/21 22:49:56;;;;;;;8.40;4.60;;;4.80;87.40;;;5.27;60.52;100235.91;4870619;28;123717;-88
2022/01/21 23:02:02;;;;;;;7.50;4.67;;;4.80;87.70;;;5.28;60.52;100218.38;4879123;28;125269;-88
2022/01/21 23:04:31;;;;;;;7.47;4.33;;;4.80;87.70;;;5.30;60.30;100216.22;4860671;28;123384;-87
2022/01/21 23:07:00;;;;;;;8.77;4.67;;;4.80;87.90;;;5.35;60.62;100223.72;4879657;28;119200;-90
2022/01/21 23:10:07;;;;;;;10.63;5.33;;;4.90;88.00;;;5.39;60.60;100230.38;4861133;28;117089;-90
2022/01/21 23:12:55;;;;;;;9.17;5.20;;;4.90;88.00;;;5.39;59.82;100218.56;4882040;28;121994;-89
2022/01/21 23:19:23;;;;;;;8.90;5.10;;;4.90;88.00;;;5.34;59.94;100216.56;4899176;28;119705;-89
2022/01/21 23:25:52;;;;;;;6.00;4.00;;;4.80;88.00;;;5.28;60.91;100201.09;4883615;28;125046;-89
2022/01/21 23:28:25;;;;;;;8.60;4.07;;;4.80;87.90;;;5.29;61.04;100192.66;4874469;28;123805;-89
2022/01/21 23:31:49;;;;;;;5.57;4.17;;;4.80;88.00;;;5.34;60.08;100191.06;4866767;28;120075;-88
2022/01/21 23:34:26;;;;;;;5.90;4.50;;;4.90;88.20;;;5.32;60.46;100194.91;4887059;28;119583;-89
2022/01/21 23:37:15;;;;;;;9.83;4.37;;;5.00;88.30;;;5.38;60.17;100184.88;4875130;28;123843;-90
2022/01/21 23:39:50;;;;;;;8.63;4.37;;;4.90;88.30;;;5.38;61.03;100182.13;4883026;28;123619;-89
2022/01/21 23:42:37;;;;;;;6.80;4.47;;;4.90;88.30;;;5.42;60.39;100187.94;4881265;28;119384;-89
2022/01/21 23:45:05;;;;;;;10.33;5.23;;;4.90;88.40;;;5.37;60.41;100190.56;4883545;28;118251;-91
2022/01/21 23:47:33;;;;;;;9.67;4.70;;;4.90;88.30;;;5.37;60.29;100198.78;4876649;28;123018;-91
2022/01/21 23:50:02;;;;;;;9.83;5.53;;;4.90;88.50;;;5.34;60.75;100182.84;4875782;28;123159;-90
2022/01/21 23:56:12;;;;;;;7.00;4.90;;;4.80;88.30;;;5.26;60.75;100176.66;4892300;28;120481;-89
2022/01/21 23:58:59;;;;;;;9.23;4.93;;;4.80;88.40;;;5.29;60.35;100175.34;4865651;28;123751;-88
